Time;durP1;ratioP1;P1;durP2;ratioP2;P2;SDS_P1;SDS_P2;PMS_P1;PMS_P2;Temp;Humidity;BMP_temperature;BMP_pressure;BME280_temperature;BME280_humidity;BME280_pressure;Samples;Min_cycle;Max_cycle;Signal;HPM_P1;HPM_P2
2024/03/20 00:01:17;;;;;;;7.87;7.77;;;;;;;;;;4969892;28;20493;-72
2024/03/20 00:03:45;;;;;;;7.80;7.70;;;;;;;;;;4968259;28;20476;-72
2024/03/20 00:06:12;;;;;;;8.13;8.03;;;;;;;;;;4968608;28;20908;-73
2024/03/20 00:08:40;;;;;;;7.87;7.77;;;;;;;;;;4964555;28;20506;-72
2024/03/20 00:11:08;;;;;;;8.13;8.03;;;;;;;;;;4968161;28;21894;-72
2024/03/20 00:13:35;;;;;;;8.43;8.33;;;;;;;;;;4959766;28;20464;-73
2024/03/20 00:16:03;;;;;;;7.70;7.60;;;;;;;;;;4966733;28;20460;-72
2024/03/20 00:18:31;;;;;;;8.20;8.10;;;;;;;;;;4969232;28;20553;-73
2024/03/20 00:20:58;;;;;;;8.23;8.13;;;;;;;;;;4967998;28;20967;-72
2024/03/20 00:23:25;;;;;;;8.07;7.97;;;;;;;;;;4964200;28;20478;-73
2024/03/20 00:25:52;;;;;;;8.57;8.47;;;;;;;;;;4966735;28;20471;-72
2024/03/20 00:28:21;;;;;;;8.60;8.50;;;;;;;;;;4966348;28;20501;-72
2024/03/20 00:30:48;;;;;;;8.23;8.13;;;;;;;;;;4968782;28;20463;-72
2024/03/20 00:33:15;;;;;;;8.97;8.77;;;;;;;;;;4959424;28;20830;-72
2024/03/20 00:35:42;;;;;;;9.40;9.20;;;;;;;;;;4966001;28;21001;-72
2024/03/20 00:38:09;;;;;;;9.23;9.03;;;;;;;;;;4965910;28;20463;-71
2024/03/20 00:40:37;;;;;;;9.53;9.33;;;;;;;;;;4971085;28;20466;-72
2024/03/20 00:43:04;;;;;;;10.00;9.80;;;;;;;;;;4959047;28;20472;-73
2024/03/20 00:45:33;;;;;;;10.03;9.83;;;;;;;;;;4973439;28;20530;-72
2024/03/20 00:48:00;;;;;;;9.80;9.60;;;;;;;;;;4965755;28;20484;-72
2024/03/20 00:50:27;;;;;;;9.47;9.27;;;;;;;;;;4972873;28;20559;-72
2024/03/20 00:52:54;;;;;;;9.43;9.23;;;;;;;;;;4969319;28;20502;-73
2024/03/20 00:55:21;;;;;;;9.77;9.57;;;;;;;;;;4962200;28;20472;-72
2024/03/20 00:57:48;;;;;;;9.70;9.50;;;;;;;;;;4977069;28;20470;-72
2024/03/20 01:00:17;;;;;;;9.50;9.30;;;;;;;;;;4971495;28;20831;-72
2024/03/20 01:02:46;;;;;;;9.03;8.83;;;;;;;;;;4967834;28;20484;-72
2024/03/20 01:05:14;;;;;;;9.30;9.10;;;;;;;;;;4964021;28;20467;-72
2024/03/20 01:07:41;;;;;;;9.90;9.70;;;;;;;;;;4965643;28;20487;-72
2024/03/20 01:10:09;;;;;;;9.27;9.07;;;;;;;;;;4962385;28;20464;-72
2024/03/20 01:12:36;;;;;;;9.53;9.33;;;;;;;;;;4959616;28;20474;-73
2024/03/20 01:15:03;;;;;;;9.30;9.10;;;;;;;;;;4958473;28;20472;-71
2024/03/20 01:17:33;;;;;;;9.60;9.40;;;;;;;;;;4971926;28;20470;-72
2024/03/20 01:20:03;;;;;;;9.17;8.97;;;;;;;;;;4968961;28;20467;-72
2024/03/20 01:22:33;;;;;;;9.73;9.53;;;;;;;;;;4971994;28;20459;-72
2024/03/20 01:25:00;;;;;;;9.70;9.50;;;;;;;;;;4972694;28;20460;-72
2024/03/20 01:27:27;;;;;;;9.60;9.40;;;;;;;;;;4964135;28;20476;-72
2024/03/20 01:29:55;;;;;;;9.43;9.23;;;;;;;;;;4976930;28;20558;-72
2024/03/20 01:32:22;;;;;;;9.50;9.30;;;;;;;;;;4985358;28;20565;-71
2024/03/20 01:34:49;;;;;;;9.50;9.30;;;;;;;;;;4965857;28;20484;-72
2024/03/20 01:37:18;;;;;;;9.50;9.30;;;;;;;;;;4965424;28;20477;-71
2024/03/20 01:39:46;;;;;;;9.93;9.73;;;;;;;;;;4974354;28;20550;-72
2024/03/20 01:42:13;;;;;;;10.00;9.80;;;;;;;;;;4960087;28;20468;-72
2024/03/20 01:44:41;;;;;;;10.00;9.80;;;;;;;;;;4960827;28;20471;-71
2024/03/20 01:47:09;;;;;;;10.10;9.90;;;;;;;;;;4973003;28;20460;-72
2024/03/20 01:49:36;;;;;;;10.00;9.80;;;;;;;;;;4969649;28;20500;-72
2024/03/20 01:52:04;;;;;;;10.17;9.97;;;;;;;;;;4970919;28;20863;-71
2024/03/20 01:54:32;;;;;;;10.37;10.17;;;;;;;;;;4967140;28;20681;-72
2024/03/20 01:57:00;;;;;;;10.30;10.10;;;;;;;;;;4965657;28;21002;-71
2024/03/20 01:59:27;;;;;;;10.57;10.37;;;;;;;;;;4971629;28;20542;-71
2024/03/20 02:01:54;;;;;;;10.67;10.40;;;;;;;;;;4977660;28;20698;-71
2024/03/20 02:04:22;;;;;;;10.30;10.10;;;;;;;;;;4967179;28;20470;-72
2024/03/20 02:06:49;;;;;;;10.00;9.80;;;;;;;;;;4965130;28;20468;-71
2024/03/20 02:09:16;;;;;;;10.17;9.97;;;;;;;;;;4961367;28;20524;-71
2024/03/20 02:11:44;;;;;;;9.97;9.77;;;;;;;;;;4967165;28;20474;-72
2024/03/20 02:14:12;;;;;;;9.90;9.70;;;;;;;;;;4967555;28;20894;-71
2024/03/20 02:16:39;;;;;;;10.00;9.80;;;;;;;;;;4962696;28;20467;-71
2024/03/20 02:19:05;;;;;;;9.80;9.60;;;;;;;;;;4968478;28;20487;-71
2024/03/20 02:21:34;;;;;;;10.10;9.90;;;;;;;;;;4966462;28;20468;-72
2024/03/20 02:24:05;;;;;;;9.73;9.53;;;;;;;;;;4962132;28;20978;-71
2024/03/20 02:26:33;;;;;;;9.90;9.70;;;;;;;;;;4963254;28;20462;-71
2024/03/20 02:29:00;;;;;;;9.63;9.43;;;;;;;;;;4964053;28;20485;-71
2024/03/20 02:31:27;;;;;;;9.63;9.43;;;;;;;;;;4971890;28;20468;-72
2024/03/20 02:33:54;;;;;;;9.57;9.37;;;;;;;;;;4970145;28;20548;-71
2024/03/20 02:36:21;;;;;;;9.37;9.17;;;;;;;;;;4968243;28;20479;-72
2024/03/20 02:38:50;;;;;;;9.70;9.50;;;;;;;;;;4960904;28;20855;-71
2024/03/20 02:41:18;;;;;;;10.00;9.80;;;;;;;;;;4971722;28;20475;-71
2024/03/20 02:43:45;;;;;;;9.80;9.60;;;;;;;;;;4976849;28;20459;-71
2024/03/20 02:46:13;;;;;;;9.93;9.73;;;;;;;;;;4971380;28;20843;-72
2024/03/20 02:48:40;;;;;;;9.93;9.73;;;;;;;;;;4966080;28;20544;-71
2024/03/20 02:51:07;;;;;;;9.37;9.17;;;;;;;;;;4973857;28;20457;-71
2024/03/20 02:53:34;;;;;;;10.03;9.83;;;;;;;;;;4969218;28;21050;-72
2024/03/20 02:56:02;;;;;;;10.20;10.00;;;;;;;;;;4969734;28;20471;-70
2024/03/20 02:58:30;;;;;;;9.67;9.47;;;;;;;;;;4963867;28;20488;-70
2024/03/20 03:00:57;;;;;;;9.70;9.50;;;;;;;;;;4979244;28;20510;-71
2024/03/20 03:03:24;;;;;;;9.80;9.60;;;;;;;;;;4968352;28;21007;-71
2024/03/20 03:05:51;;;;;;;8.40;8.30;;;;;;;;;;4964431;28;20648;-71
2024/03/20 03:08:19;;;;;;;9.90;9.70;;;;;;;;;;4968927;28;20487;-72
2024/03/20 03:10:46;;;;;;;10.13;9.93;;;;;;;;;;4970583;28;20461;-71
2024/03/20 03:13:14;;;;;;;10.20;10.00;;;;;;;;;;4966796;28;20684;-71
2024/03/20 03:15:42;;;;;;;9.80;9.60;;;;;;;;;;4965846;28;20958;-72
2024/03/20 03:18:10;;;;;;;10.50;10.30;;;;;;;;;;4971035;28;20468;-71
2024/03/20 03:20:37;;;;;;;10.03;9.83;;;;;;;;;;4962699;28;20478;-70
2024/03/20 03:23:04;;;;;;;10.43;10.23;;;;;;;;;;4970842;28;20464;-70
2024/03/20 03:25:31;;;;;;;9.57;9.37;;;;;;;;;;4964222;28;21024;-73
2024/03/20 03:27:59;;;;;;;10.13;9.93;;;;;;;;;;4968674;28;20809;-71
2024/03/20 03:30:27;;;;;;;9.90;9.70;;;;;;;;;;4965598;28;20874;-71
2024/03/20 03:32:54;;;;;;;9.77;9.57;;;;;;;;;;4969118;28;20452;-71
2024/03/20 03:35:23;;;;;;;10.00;9.80;;;;;;;;;;4960111;28;20460;-70
2024/03/20 03:37:50;;;;;;;10.10;9.90;;;;;;;;;;4968410;28;20479;-70
2024/03/20 03:40:17;;;;;;;9.80;9.60;;;;;;;;;;4971609;28;20471;-72
2024/03/20 03:42:44;;;;;;;10.10;9.90;;;;;;;;;;4961551;28;20467;-71
2024/03/20 03:45:11;;;;;;;9.67;9.47;;;;;;;;;;4970588;28;20809;-70
2024/03/20 03:47:41;;;;;;;10.30;10.10;;;;;;;;;;4963521;28;20975;-71
2024/03/20 03:50:09;;;;;;;9.90;9.70;;;;;;;;;;4978347;28;21005;-71
2024/03/20 03:52:36;;;;;;;9.73;9.53;;;;;;;;;;4970182;28;20460;-71
2024/03/20 03:55:04;;;;;;;10.10;9.90;;;;;;;;;;4966576;28;20467;-72
2024/03/20 03:57:31;;;;;;;10.47;10.27;;;;;;;;;;4963229;28;20890;-70
2024/03/20 03:59:58;;;;;;;9.63;9.43;;;;;;;;;;4968393;28;20721;-71
2024/03/20 04:02:36;;;;;;;9.93;9.73;;;;;;;;;;5097705;27;21005;-70
2024/03/20 04:05:04;;;;;;;10.20;10.00;;;;;;;;;;5094143;28;20458;-70
2024/03/20 04:07:31;;;;;;;9.77;9.57;;;;;;;;;;5079129;28;20855;-71
2024/03/20 04:09:59;;;;;;;10.20;10.00;;;;;;;;;;5079312;28;20466;-70
2024/03/20 04:12:26;;;;;;;9.47;9.27;;;;;;;;;;5081833;28;20463;-70
2024/03/20 04:14:54;;;;;;;9.77;9.57;;;;;;;;;;5083451;28;20543;-71
2024/03/20 04:17:21;;;;;;;9.23;9.03;;;;;;;;;;5082135;28;20511;-71
2024/03/20 04:19:50;;;;;;;9.60;9.40;;;;;;;;;;5067632;28;20464;-70
2024/03/20 04:22:17;;;;;;;9.77;9.57;;;;;;;;;;5076055;28;20494;-71
2024/03/20 04:24:44;;;;;;;9.20;9.00;;;;;;;;;;5074664;28;20464;-70
2024/03/20 04:27:11;;;;;;;9.33;9.13;;;;;;;;;;5081791;28;20451;-69
2024/03/20 04:29:38;;;;;;;9.10;8.90;;;;;;;;;;5079952;28;20824;-70
2024/03/20 04:32:06;;;;;;;9.90;9.70;;;;;;;;;;5071140;28;20491;-71
2024/03/20 04:34:33;;;;;;;10.17;9.97;;;;;;;;;;5078618;28;20542;-69
2024/03/20 04:37:02;;;;;;;10.30;10.10;;;;;;;;;;5074337;28;20469;-70
2024/03/20 04:39:30;;;;;;;9.30;9.10;;;;;;;;;;5079922;28;20526;-71
2024/03/20 04:41:57;;;;;;;9.30;9.10;;;;;;;;;;5084482;28;20567;-70
2024/03/20 04:44:24;;;;;;;9.50;9.30;;;;;;;;;;5081491;28;21700;-71
2024/03/20 04:46:51;;;;;;;9.93;9.73;;;;;;;;;;5079454;28;20993;-70
2024/03/20 04:49:19;;;;;;;9.73;9.53;;;;;;;;;;5078017;28;20467;-69
2024/03/20 04:51:46;;;;;;;9.30;9.10;;;;;;;;;;5073782;28;20459;-69
2024/03/20 04:54:16;;;;;;;9.50;9.30;;;;;;;;;;5078894;28;20462;-69
2024/03/20 04:56:44;;;;;;;9.53;9.33;;;;;;;;;;5079290;28;21078;-70
2024/03/20 04:59:11;;;;;;;8.20;8.10;;;;;;;;;;5080903;28;20678;-70
2024/03/20 05:01:38;;;;;;;9.13;8.93;;;;;;;;;;5078763;28;20901;-71
2024/03/20 05:04:06;;;;;;;8.77;8.67;;;;;;;;;;5078065;28;20471;-71
2024/03/20 05:06:33;;;;;;;9.20;9.00;;;;;;;;;;5069564;28;20464;-70
2024/03/20 05:09:00;;;;;;;9.70;9.50;;;;;;;;;;5075754;28;20511;-71
2024/03/20 05:11:29;;;;;;;9.93;9.73;;;;;;;;;;5082783;28;20459;-70
2024/03/20 05:13:56;;;;;;;9.90;9.70;;;;;;;;;;5069255;28;20491;-71
2024/03/20 05:16:23;;;;;;;10.00;9.80;;;;;;;;;;5060010;28;20474;-70
2024/03/20 05:18:51;;;;;;;9.70;9.50;;;;;;;;;;5055900;28;20476;-69
2024/03/20 05:21:18;;;;;;;9.93;9.73;;;;;;;;;;5063029;28;20486;-70
2024/03/20 05:23:44;;;;;;;10.00;9.80;;;;;;;;;;5064572;28;21004;-70
2024/03/20 05:26:11;;;;;;;9.80;9.60;;;;;;;;;;5061355;28;20640;-70
2024/03/20 05:28:39;;;;;;;9.60;9.40;;;;;;;;;;5065645;28;20459;-70
2024/03/20 05:31:06;;;;;;;9.60;9.40;;;;;;;;;;5062573;28;20479;-71
2024/03/20 05:33:33;;;;;;;9.60;9.40;;;;;;;;;;5056677;28;20468;-70
2024/03/20 05:36:00;;;;;;;9.70;9.50;;;;;;;;;;5065658;28;20892;-70
2024/03/20 05:38:26;;;;;;;9.70;9.50;;;;;;;;;;5067759;28;20467;-69
2024/03/20 05:40:53;;;;;;;10.17;9.97;;;;;;;;;;5059001;28;20481;-69
2024/03/20 05:43:20;;;;;;;9.80;9.60;;;;;;;;;;5066115;28;20458;-70
2024/03/20 05:45:48;;;;;;;9.77;9.57;;;;;;;;;;5068682;28;20825;-69
2024/03/20 05:48:14;;;;;;;9.90;9.70;;;;;;;;;;5068631;28;20459;-70
2024/03/20 05:50:42;;;;;;;9.47;9.27;;;;;;;;;;5059648;28;21159;-69
2024/03/20 05:53:08;;;;;;;9.87;9.67;;;;;;;;;;5059671;28;20462;-69
2024/03/20 05:55:35;;;;;;;9.50;9.30;;;;;;;;;;5066531;28;20480;-69
2024/03/20 05:58:01;;;;;;;9.40;9.20;;;;;;;;;;5053527;28;20457;-69
2024/03/20 06:00:28;;;;;;;9.40;9.20;;;;;;;;;;5059416;28;20533;-69
2024/03/20 06:02:57;;;;;;;9.70;9.50;;;;;;;;;;5054525;28;20504;-69
2024/03/20 06:05:23;;;;;;;9.20;9.00;;;;;;;;;;5068150;28;20789;-69
2024/03/20 06:07:50;;;;;;;9.80;9.60;;;;;;;;;;5062758;28;20467;-70
2024/03/20 06:10:17;;;;;;;9.17;8.97;;;;;;;;;;5059004;28;20465;-69
2024/03/20 06:12:44;;;;;;;10.00;9.80;;;;;;;;;;5067911;28;20836;-70
2024/03/20 06:15:10;;;;;;;9.47;9.27;;;;;;;;;;5058423;28;20477;-71
2024/03/20 06:17:38;;;;;;;9.03;8.83;;;;;;;;;;5057787;28;20513;-71
2024/03/20 06:20:08;;;;;;;8.80;8.70;;;;;;;;;;5065564;28;20495;-69
2024/03/20 06:22:36;;;;;;;9.63;9.43;;;;;;;;;;5059617;28;20569;-71
2024/03/20 06:25:06;;;;;;;9.80;9.60;;;;;;;;;;5064485;28;20546;-70
2024/03/20 06:27:34;;;;;;;9.57;9.37;;;;;;;;;;5062880;28;20556;-69
2024/03/20 06:30:00;;;;;;;9.60;9.40;;;;;;;;;;5054199;28;20465;-71
2024/03/20 06:32:30;;;;;;;9.57;9.37;;;;;;;;;;5060543;28;20968;-70
2024/03/20 06:34:56;;;;;;;9.67;9.47;;;;;;;;;;5065915;28;20463;-69
2024/03/20 06:37:25;;;;;;;10.10;9.90;;;;;;;;;;5064650;28;20971;-68
2024/03/20 06:39:51;;;;;;;9.67;9.47;;;;;;;;;;5053746;28;20777;-70
2024/03/20 06:42:20;;;;;;;9.20;9.00;;;;;;;;;;5050815;28;20935;-71
2024/03/20 06:44:47;;;;;;;9.43;9.23;;;;;;;;;;5062446;28;20457;-69
2024/03/20 06:47:14;;;;;;;9.30;9.10;;;;;;;;;;5062965;28;20953;-70
2024/03/20 06:49:40;;;;;;;9.40;9.20;;;;;;;;;;5063310;28;20467;-69
2024/03/20 06:52:07;;;;;;;9.13;8.93;;;;;;;;;;5060371;28;20821;-70
2024/03/20 06:54:35;;;;;;;9.27;9.07;;;;;;;;;;5061946;28;20464;-71
2024/03/20 06:57:03;;;;;;;9.20;9.00;;;;;;;;;;5067295;28;20556;-69
2024/03/20 06:59:30;;;;;;;9.37;9.17;;;;;;;;;;5061265;28;21033;-70
2024/03/20 07:01:57;;;;;;;10.00;9.80;;;;;;;;;;5060019;28;20545;-70
2024/03/20 07:04:24;;;;;;;10.50;10.30;;;;;;;;;;5052291;28;20461;-71
2024/03/20 07:06:51;;;;;;;9.30;9.10;;;;;;;;;;5061707;28;20551;-70
2024/03/20 07:09:17;;;;;;;9.20;9.00;;;;;;;;;;5066478;28;20539;-70
2024/03/20 07:11:48;;;;;;;9.13;8.93;;;;;;;;;;5066945;28;20475;-70
2024/03/20 07:14:14;;;;;;;10.07;9.87;;;;;;;;;;5058213;28;20464;-70
2024/03/20 07:16:41;;;;;;;9.90;9.70;;;;;;;;;;5065126;28;20545;-70
2024/03/20 07:19:07;;;;;;;10.40;10.20;;;;;;;;;;5050905;28;20474;-70
2024/03/20 07:21:35;;;;;;;11.17;10.87;;;;;;;;;;5058624;28;20500;-71
2024/03/20 07:24:02;;;;;;;10.40;10.20;;;;;;;;;;5067175;28;20578;-68
2024/03/20 07:26:29;;;;;;;10.40;10.20;;;;;;;;;;5058007;28;20467;-72
2024/03/20 07:28:57;;;;;;;10.30;10.10;;;;;;;;;;5060341;28;20582;-69
2024/03/20 07:31:24;;;;;;;9.80;9.60;;;;;;;;;;5064171;28;20562;-71
2024/03/20 07:33:51;;;;;;;10.80;10.50;;;;;;;;;;5066193;28;20468;-70
2024/03/20 07:36:18;;;;;;;11.20;10.90;;;;;;;;;;5052020;28;20996;-69
2024/03/20 07:38:44;;;;;;;12.27;11.87;;;;;;;;;;5058119;28;20473;-69
2024/03/20 07:41:11;;;;;;;11.23;10.93;;;;;;;;;;5066476;28;20469;-69
2024/03/20 07:43:39;;;;;;;11.00;10.70;;;;;;;;;;5062009;28;21021;-69
2024/03/20 07:46:08;;;;;;;10.67;10.37;;;;;;;;;;5062029;28;20952;-71
2024/03/20 07:48:38;;;;;;;10.90;10.60;;;;;;;;;;5061474;28;20985;-70
2024/03/20 07:51:06;;;;;;;11.97;11.63;;;;;;;;;;5054279;28;20982;-71
2024/03/20 07:53:32;;;;;;;11.27;10.97;;;;;;;;;;5054114;28;20465;-70
2024/03/20 07:55:59;;;;;;;11.70;11.40;;;;;;;;;;5063005;28;20602;-70
2024/03/20 07:58:25;;;;;;;11.17;10.87;;;;;;;;;;5055688;28;20458;-71
2024/03/20 08:00:53;;;;;;;11.80;11.50;;;;;;;;;;5056967;28;21136;-71
2024/03/20 08:03:21;;;;;;;12.97;12.57;;;;;;;;;;5062682;28;20501;-70
2024/03/20 08:05:48;;;;;;;12.90;12.50;;;;;;;;;;5062756;28;20798;-71
2024/03/20 08:08:14;;;;;;;13.20;12.80;;;;;;;;;;5063657;28;20466;-71
2024/03/20 08:10:42;;;;;;;13.73;13.23;;;;;;;;;;5058863;28;20542;-71
2024/03/20 08:13:10;;;;;;;13.37;12.97;;;;;;;;;;5060597;28;20937;-71
2024/03/20 08:15:39;;;;;;;13.27;12.87;;;;;;;;;;5059019;28;20496;-71
2024/03/20 08:18:05;;;;;;;14.07;13.57;;;;;;;;;;5062107;28;20488;-70
2024/03/20 08:20:34;;;;;;;14.10;13.60;;;;;;;;;;5061138;28;21064;-71
2024/03/20 08:23:01;;;;;;;14.07;13.57;;;;;;;;;;5062583;28;20483;-71
2024/03/20 08:25:28;;;;;;;13.90;13.40;;;;;;;;;;5056321;28;20720;-71
2024/03/20 08:27:55;;;;;;;14.07;13.57;;;;;;;;;;5066803;28;20455;-71
2024/03/20 08:30:22;;;;;;;14.00;13.50;;;;;;;;;;5050952;28;20467;-72
2024/03/20 08:32:49;;;;;;;14.13;13.63;;;;;;;;;;5051611;28;20798;-71
2024/03/20 08:35:17;;;;;;;14.33;13.83;;;;;;;;;;5066198;28;20876;-71
2024/03/20 08:37:44;;;;;;;14.53;14.03;;;;;;;;;;5053685;28;20576;-71
2024/03/20 08:40:12;;;;;;;14.30;13.80;;;;;;;;;;5066004;28;20495;-72
2024/03/20 08:42:38;;;;;;;14.90;14.40;;;;;;;;;;5052807;28;20900;-72
2024/03/20 08:45:08;;;;;;;14.37;13.87;;;;;;;;;;5063139;28;20541;-72
2024/03/20 08:47:34;;;;;;;14.60;14.10;;;;;;;;;;5067085;28;20539;-71
2024/03/20 08:50:02;;;;;;;14.40;13.90;;;;;;;;;;5060002;28;21063;-72
2024/03/20 08:52:28;;;;;;;14.47;13.97;;;;;;;;;;5066273;28;20546;-71
2024/03/20 08:54:57;;;;;;;13.80;13.40;;;;;;;;;;5069791;28;20565;-70
2024/03/20 08:57:23;;;;;;;15.03;14.53;;;;;;;;;;5056682;28;20455;-71
2024/03/20 08:59:50;;;;;;;14.33;13.83;;;;;;;;;;5059610;28;20905;-71
2024/03/20 09:02:17;;;;;;;14.30;13.80;;;;;;;;;;5067743;28;20777;-71
2024/03/20 09:04:44;;;;;;;14.73;14.23;;;;;;;;;;5069779;28;20474;-71
2024/03/20 09:07:10;;;;;;;14.10;13.60;;;;;;;;;;5051077;28;20468;-71
2024/03/20 09:09:37;;;;;;;14.70;14.20;;;;;;;;;;5058700;28;20480;-72
2024/03/20 09:12:05;;;;;;;14.80;14.30;;;;;;;;;;5060273;28;20987;-71
2024/03/20 09:14:33;;;;;;;14.53;14.03;;;;;;;;;;5060765;28;20473;-72
2024/03/20 09:16:59;;;;;;;14.47;13.97;;;;;;;;;;5069549;28;20457;-71
2024/03/20 09:19:26;;;;;;;14.57;14.07;;;;;;;;;;5064163;28;20460;-72
2024/03/20 09:21:52;;;;;;;14.27;13.77;;;;;;;;;;5058226;28;20473;-71
2024/03/20 09:24:22;;;;;;;14.93;14.43;;;;;;;;;;5067774;28;20471;-71
2024/03/20 09:26:49;;;;;;;14.40;13.90;;;;;;;;;;5061421;28;20457;-71
2024/03/20 09:29:17;;;;;;;13.97;13.50;;;;;;;;;;5067181;28;20485;-72
2024/03/20 09:31:44;;;;;;;14.30;13.80;;;;;;;;;;5059219;28;20474;-72
2024/03/20 09:34:11;;;;;;;14.60;14.10;;;;;;;;;;5056518;28;20512;-72
2024/03/20 09:36:37;;;;;;;14.30;13.80;;;;;;;;;;5061492;28;20762;-72
2024/03/20 09:39:04;;;;;;;14.37;13.87;;;;;;;;;;5066509;28;20471;-72
2024/03/20 09:41:32;;;;;;;14.40;13.90;;;;;;;;;;5055818;28;20475;-72
2024/03/20 09:43:59;;;;;;;14.70;14.20;;;;;;;;;;5068199;28;20471;-73
2024/03/20 09:46:26;;;;;;;14.43;13.93;;;;;;;;;;5060653;28;20494;-73
2024/03/20 09:48:54;;;;;;;14.40;13.90;;;;;;;;;;5059036;28;20472;-72
2024/03/20 09:51:21;;;;;;;14.60;14.10;;;;;;;;;;5068727;28;20778;-73
2024/03/20 09:53:49;;;;;;;14.07;13.57;;;;;;;;;;5063504;28;20487;-73
2024/03/20 09:56:17;;;;;;;14.67;14.17;;;;;;;;;;5066857;28;20512;-73
2024/03/20 09:58:44;;;;;;;14.80;14.30;;;;;;;;;;5059737;28;20527;-73
2024/03/20 10:01:12;;;;;;;14.90;14.40;;;;;;;;;;5057556;28;20519;-73
2024/03/20 10:03:43;;;;;;;15.33;14.73;;;;;;;;;;5068334;28;20578;-73
2024/03/20 10:06:10;;;;;;;15.03;14.43;;;;;;;;;;5066421;28;20801;-73
2024/03/20 10:08:38;;;;;;;15.20;14.60;;;;;;;;;;5054643;28;20947;-73
2024/03/20 10:11:05;;;;;;;15.00;14.40;;;;;;;;;;5065586;28;20484;-73
2024/03/20 10:13:32;;;;;;;14.83;14.33;;;;;;;;;;5068237;28;20527;-73
2024/03/20 10:16:04;;;;;;;15.20;14.60;;;;;;;;;;5058810;28;20472;-74
2024/03/20 10:18:31;;;;;;;15.30;14.70;;;;;;;;;;5056723;28;20474;-74
2024/03/20 10:20:58;;;;;;;14.83;14.33;;;;;;;;;;5065302;28;20968;-74
2024/03/20 10:23:26;;;;;;;15.10;14.50;;;;;;;;;;5067857;28;21015;-74
2024/03/20 10:25:52;;;;;;;15.17;14.57;;;;;;;;;;5063681;28;20501;-74
2024/03/20 10:28:23;;;;;;;15.27;14.67;;;;;;;;;;5056889;28;20981;-73
2024/03/20 10:30:51;;;;;;;14.83;14.33;;;;;;;;;;5057721;28;20453;-73
2024/03/20 10:33:19;;;;;;;16.13;15.53;;;;;;;;;;5062429;28;20477;-74
2024/03/20 10:35:47;;;;;;;15.90;15.30;;;;;;;;;;5063285;28;20455;-74
2024/03/20 10:38:16;;;;;;;16.10;15.50;;;;;;;;;;5061845;28;20830;-74
2024/03/20 10:40:43;;;;;;;15.70;15.10;;;;;;;;;;5054676;28;20790;-74
2024/03/20 10:43:11;;;;;;;15.70;15.10;;;;;;;;;;5059921;28;20492;-74
2024/03/20 10:45:38;;;;;;;15.57;14.97;;;;;;;;;;5053032;28;20523;-74
2024/03/20 10:48:06;;;;;;;15.47;14.87;;;;;;;;;;5055762;28;20477;-74
2024/03/20 10:50:32;;;;;;;16.17;15.57;;;;;;;;;;5067054;28;20519;-75
2024/03/20 10:53:00;;;;;;;16.10;15.50;;;;;;;;;;5062892;28;20549;-74
2024/03/20 10:55:28;;;;;;;16.03;15.43;;;;;;;;;;5063966;28;20455;-75
2024/03/20 10:57:58;;;;;;;15.90;15.30;;;;;;;;;;5059996;28;20937;-74
2024/03/20 11:00:25;;;;;;;16.13;15.53;;;;;;;;;;5060766;28;20449;-74
2024/03/20 11:02:52;;;;;;;16.10;15.50;;;;;;;;;;5060345;28;20601;-75
2024/03/20 11:05:37;;;;;;;16.37;15.77;;;;;;;;;;5052792;28;20475;-74
2024/03/20 11:08:07;;;;;;;16.50;15.90;;;;;;;;;;5058237;28;20455;-74
2024/03/20 11:10:35;;;;;;;17.23;16.53;;;;;;;;;;5066446;28;20462;-74
2024/03/20 11:13:03;;;;;;;17.03;16.37;;;;;;;;;;5067022;28;20458;-75
2024/03/20 11:15:30;;;;;;;16.60;16.00;;;;;;;;;;5057408;28;20461;-74
2024/03/20 11:17:57;;;;;;;16.40;15.80;;;;;;;;;;5057259;28;20463;-75
2024/03/20 11:20:41;;;;;;;16.50;15.90;;;;;;;;;;5055365;28;21029;-75
2024/03/20 11:23:11;;;;;;;16.83;16.23;;;;;;;;;;5066764;28;20526;-75
2024/03/20 11:25:38;;;;;;;16.93;16.33;;;;;;;;;;5067035;28;20470;-75
2024/03/20 11:28:06;;;;;;;16.70;16.10;;;;;;;;;;5058427;28;20460;-75
2024/03/20 11:30:32;;;;;;;16.73;16.13;;;;;;;;;;5058610;28;22774;-74
2024/03/20 11:32:59;;;;;;;16.83;16.23;;;;;;;;;;5062555;28;20505;-76
2024/03/20 11:35:27;;;;;;;16.80;16.20;;;;;;;;;;5059013;28;20468;-75
2024/03/20 11:37:55;;;;;;;17.03;16.43;;;;;;;;;;5063765;28;20463;-75
2024/03/20 11:40:21;;;;;;;17.33;16.73;;;;;;;;;;5056526;28;20471;-75
2024/03/20 11:42:51;;;;;;;16.57;15.97;;;;;;;;;;5048533;28;20741;-76
2024/03/20 11:45:17;;;;;;;17.30;16.70;;;;;;;;;;5023975;28;20873;-75
2024/03/20 11:47:44;;;;;;;17.00;16.40;;;;;;;;;;5028190;28;21019;-76
2024/03/20 11:50:13;;;;;;;16.33;15.73;;;;;;;;;;5060170;28;21054;-76
2024/03/20 11:52:40;;;;;;;17.67;17.00;;;;;;;;;;5055874;28;20531;-76
2024/03/20 11:55:10;;;;;;;18.10;17.40;;;;;;;;;;5066624;28;20477;-75
2024/03/20 11:57:38;;;;;;;17.77;17.10;;;;;;;;;;5060751;28;20529;-76
2024/03/20 12:00:08;;;;;;;16.77;16.17;;;;;;;;;;5055763;28;20463;-76
2024/03/20 12:02:37;;;;;;;15.37;14.87;;;;;;;;;;5057300;28;20491;-76
2024/03/20 12:05:06;;;;;;;16.43;15.83;;;;;;;;;;5049261;28;20461;-76
2024/03/20 12:07:33;;;;;;;17.30;16.70;;;;;;;;;;5059603;28;20470;-76
2024/03/20 12:09:59;;;;;;;17.77;17.17;;;;;;;;;;5066290;28;20472;-76
2024/03/20 12:12:27;;;;;;;16.93;16.33;;;;;;;;;;5064142;28;20466;-77
2024/03/20 12:14:54;;;;;;;17.50;16.90;;;;;;;;;;5061298;28;20461;-77
2024/03/20 12:17:22;;;;;;;17.03;16.43;;;;;;;;;;5057424;28;20469;-77
2024/03/20 12:19:49;;;;;;;16.20;15.70;;;;;;;;;;5063224;28;20566;-76
2024/03/20 12:22:16;;;;;;;16.80;16.20;;;;;;;;;;5058888;28;20968;-76
2024/03/20 12:24:43;;;;;;;16.60;16.00;;;;;;;;;;5073907;28;20504;-77
2024/03/20 12:27:10;;;;;;;16.80;16.20;;;;;;;;;;5064855;28;20454;-76
2024/03/20 12:29:37;;;;;;;16.83;16.23;;;;;;;;;;5070318;28;20563;-76
2024/03/20 12:32:03;;;;;;;16.97;16.37;;;;;;;;;;5058902;28;20781;-77
2024/03/20 12:34:32;;;;;;;17.13;16.53;;;;;;;;;;5058317;28;20949;-77
2024/03/20 12:36:59;;;;;;;16.40;15.80;;;;;;;;;;5066210;28;20545;-77
2024/03/20 12:39:29;;;;;;;17.27;16.67;;;;;;;;;;5070161;28;20827;-78
2024/03/20 12:41:56;;;;;;;17.07;16.47;;;;;;;;;;5067281;28;20566;-77
2024/03/20 12:44:23;;;;;;;16.60;16.00;;;;;;;;;;5055390;28;20853;-77
2024/03/20 12:46:49;;;;;;;15.80;15.30;;;;;;;;;;5059040;28;20961;-77
2024/03/20 12:49:17;;;;;;;18.13;17.43;;;;;;;;;;5066404;28;20459;-78
2024/03/20 12:51:44;;;;;;;17.10;16.50;;;;;;;;;;5058381;28;20467;-77
2024/03/20 12:54:13;;;;;;;17.03;16.43;;;;;;;;;;5069578;28;20853;-76
2024/03/20 12:56:40;;;;;;;16.60;16.00;;;;;;;;;;5063146;28;20836;-77
2024/03/20 12:59:10;;;;;;;17.20;16.60;;;;;;;;;;5069743;28;20471;-77
2024/03/20 13:01:36;;;;;;;16.97;16.37;;;;;;;;;;5065362;28;20573;-79
2024/03/20 13:04:04;;;;;;;16.83;16.23;;;;;;;;;;5052251;28;20499;-77
2024/03/20 13:06:30;;;;;;;17.10;16.50;;;;;;;;;;5056882;28;20464;-79
2024/03/20 13:08:59;;;;;;;16.60;16.00;;;;;;;;;;5068551;28;20507;-77
2024/03/20 13:11:25;;;;;;;16.10;15.50;;;;;;;;;;5065970;28;20662;-77
2024/03/20 13:13:52;;;;;;;17.03;16.43;;;;;;;;;;5069184;28;20478;-77
2024/03/20 13:16:19;;;;;;;16.53;15.93;;;;;;;;;;5064225;28;20462;-77
2024/03/20 13:18:51;;;;;;;16.67;16.07;;;;;;;;;;5062162;28;20977;-79
2024/03/20 13:21:24;;;;;;;17.10;16.50;;;;;;;;;;5062845;28;20463;-78
2024/03/20 13:23:59;;;;;;;16.20;15.60;;;;;;;;;;5059412;28;20495;-78
2024/03/20 13:26:27;;;;;;;17.20;16.60;;;;;;;;;;5055731;28;21035;-77
2024/03/20 13:28:55;;;;;;;17.33;16.73;;;;;;;;;;5066636;28;20569;-77
2024/03/20 13:31:22;;;;;;;17.27;16.67;;;;;;;;;;5062700;28;20518;-77
2024/03/20 13:33:49;;;;;;;17.53;16.83;;;;;;;;;;5057536;28;20455;-79
2024/03/20 13:36:17;;;;;;;16.77;16.17;;;;;;;;;;5066512;28;20812;-77
2024/03/20 13:38:44;;;;;;;16.67;16.07;;;;;;;;;;5068287;28;20467;-79
2024/03/20 13:41:23;;;;;;;16.83;16.23;;;;;;;;;;5064879;28;20462;-77
2024/03/20 13:44:00;;;;;;;17.10;16.50;;;;;;;;;;5054564;28;20529;-77
2024/03/20 13:46:28;;;;;;;17.10;16.50;;;;;;;;;;5068548;28;20449;-78
2024/03/20 13:48:54;;;;;;;16.90;16.30;;;;;;;;;;5058107;28;20780;-77
2024/03/20 13:51:22;;;;;;;16.70;16.10;;;;;;;;;;5065818;28;20466;-77
2024/03/20 13:53:49;;;;;;;16.80;16.20;;;;;;;;;;5056710;28;21007;-77
2024/03/20 13:56:17;;;;;;;16.37;15.77;;;;;;;;;;5064838;28;20479;-77
2024/03/20 13:58:44;;;;;;;16.13;15.53;;;;;;;;;;5068348;28;20460;-77
2024/03/20 14:01:15;;;;;;;15.67;15.17;;;;;;;;;;5056277;28;20513;-77
2024/03/20 14:03:43;;;;;;;16.20;15.60;;;;;;;;;;5060893;28;20855;-77
2024/03/20 14:06:11;;;;;;;15.80;15.30;;;;;;;;;;5066267;28;20562;-80
2024/03/20 14:08:38;;;;;;;16.00;15.50;;;;;;;;;;5055357;28;20872;-81
2024/03/20 14:11:05;;;;;;;15.93;15.43;;;;;;;;;;5058551;28;20497;-78
2024/03/20 14:13:32;;;;;;;16.70;16.10;;;;;;;;;;5064893;28;20458;-78
2024/03/20 14:15:59;;;;;;;15.67;15.17;;;;;;;;;;5065215;28;20573;-77
2024/03/20 14:18:26;;;;;;;16.00;15.50;;;;;;;;;;5064161;28;20785;-78
2024/03/20 14:20:54;;;;;;;15.27;14.77;;;;;;;;;;5055700;28;20930;-77
2024/03/20 14:23:20;;;;;;;14.87;14.37;;;;;;;;;;5066196;28;21020;-79
2024/03/20 14:25:47;;;;;;;15.80;15.30;;;;;;;;;;5061255;28;20831;-77
2024/03/20 14:28:13;;;;;;;15.90;15.40;;;;;;;;;;5066519;28;20462;-77
2024/03/20 14:30:41;;;;;;;15.97;15.47;;;;;;;;;;5058220;28;20477;-80